Pagrindinis puslapis
METAR-TAF:

METAR-TAF

Oro uostai :

Nashua, Naujasis Hampšyras, Jungtinės Amerikos Valstijos

platuma: 42-47N, ilguma: 071-31W, Aukštis: 61 m

Dabartinis oras

Ataskaita buvo paskelbta 23 minutes, ne 06:56 UTC
Vėjas 7 kt iš Vakarų, svyruoja nuo Vakarų/Pietvakarių ir Vakarų/Šiaurės Vakarų
Temperatūra -3°C
Drėgmė 63%
Slėgis 1004 hPa
Matomumas: 14.5 km
Su prošvaistėmis ne aukštis 4500 ft
Apsiniaukę ne aukštis 6000 ft
sniegas

METAR: KASH 280656Z AUTO 27007KT 240V300 9SM -SN BKN045 OVC060 M03/M09 A2966 RMK AO2 SNB19 SLP051 P0000 T10281094

Laikas: 02:19 (07:19 UTC)


TAF: trūkstamas

Orai ataskaitas ir orų prognozės (METAR, TAF).

turimą stotys yra geltonos ir raudonos taškus žemėlapyje.

Perkelti pele per norėdami pamatyti stoties vardą.

Tada spustelėkite, norėdami matyti oro stebėjimo ir prognozės.

Norėdami pakeisti žemėlapį: spustelėkite ant žalios mygtukų su juodo kryžiaus žemyn,; žalią mygtuką su brūkšneliu, jei norite nutolinti; arba žalių rodyklių gretimoms žemėlapius.


METAR-TAF: